Time;durP1;ratioP1;P1;durP2;ratioP2;P2;SDS_P1;SDS_P2;PMS_P1;PMS_P2;Temp;Humidity;BMP_temperature;BMP_pressure;BME280_temperature;BME280_humidity;BME280_pressure;Samples;Min_cycle;Max_cycle;Signal;HPM_P1;HPM_P2
2021/11/21 00:02:11;;;;;;;15.45;9.05;;;;;;;5.81;100.00;99412.94;5061506;28;20194;-74
2021/11/21 00:04:39;;;;;;;9.40;6.53;;;;;;;5.97;100.00;99410.50;5065338;28;20228;-73
2021/11/21 00:07:06;;;;;;;11.65;6.72;;;;;;;6.13;97.67;99408.06;5069669;28;20217;-74
2021/11/21 00:09:33;;;;;;;18.92;9.07;;;;;;;6.21;98.03;99408.59;5064572;28;20247;-75
2021/11/21 00:12:00;;;;;;;12.20;6.60;;;;;;;5.91;99.29;99403.59;5067426;28;20233;-74
2021/11/21 00:14:26;;;;;;;11.32;7.32;;;;;;;5.98;99.32;99407.78;5058734;28;20292;-74
2021/11/21 00:16:57;;;;;;;14.35;8.30;;;;;;;6.00;99.72;99405.91;5066798;28;20232;-74
2021/11/21 00:19:24;;;;;;;18.05;8.77;;;;;;;5.82;100.00;99404.00;5066308;28;20189;-74
2021/11/21 00:21:52;;;;;;;17.38;9.80;;;;;;;5.99;99.50;99398.84;5067117;28;20669;-74
2021/11/21 00:24:18;;;;;;;16.73;9.77;;;;;;;5.97;99.20;99391.81;5066993;28;20273;-75
2021/11/21 00:26:45;;;;;;;18.00;8.57;;;;;;;6.00;97.83;99394.38;5066675;28;20225;-74
2021/11/21 00:29:12;;;;;;;18.10;8.63;;;;;;;6.04;97.98;99390.63;5059240;28;20234;-74
2021/11/21 00:31:38;;;;;;;16.70;10.27;;;;;;;6.21;96.84;99379.19;5066070;28;20272;-74
2021/11/21 00:34:05;;;;;;;12.98;8.38;;;;;;;6.35;95.58;99383.94;5060061;28;20194;-74
2021/11/21 00:36:32;;;;;;;15.20;8.93;;;;;;;5.97;95.96;99379.34;5062809;28;20245;-74
2021/11/21 00:39:00;;;;;;;18.90;9.40;;;;;;;6.04;97.53;99374.59;5069171;28;20559;-75
2021/11/21 00:41:26;;;;;;;17.48;9.50;;;;;;;6.23;97.39;99377.31;5064623;28;20217;-74
2021/11/21 00:43:53;;;;;;;16.80;9.57;;;;;;;6.27;96.59;99381.59;5062480;28;20284;-74
2021/11/21 00:46:20;;;;;;;12.75;8.80;;;;;;;6.30;95.01;99380.59;5063702;28;20198;-74
2021/11/21 00:48:47;;;;;;;15.45;8.35;;;;;;;5.93;96.21;99374.16;5063694;28;20273;-74
2021/11/21 00:51:15;;;;;;;16.30;9.35;;;;;;;6.01;96.50;99369.34;5063160;28;20562;-74
2021/11/21 00:53:43;;;;;;;15.93;9.95;;;;;;;6.00;95.08;99357.81;5062949;28;20194;-74
2021/11/21 00:56:12;;;;;;;13.48;8.02;;;;;;;5.78;97.50;99356.94;5061644;28;20210;-74
2021/11/21 00:58:39;;;;;;;16.80;9.45;;;;;;;5.94;97.75;99362.50;5059834;28;20673;-74
2021/11/21 01:01:07;;;;;;;13.60;8.30;;;;;;;5.83;97.20;99347.81;5066589;28;20282;-74
2021/11/21 01:03:34;;;;;;;10.35;7.38;;;;;;;5.87;97.73;99358.38;5057300;28;20213;-75
2021/11/21 01:06:01;;;;;;;17.30;9.57;;;;;;;5.92;97.84;99354.56;5062997;28;20561;-74
2021/11/21 01:08:29;;;;;;;14.45;8.27;;;;;;;6.18;96.07;99352.59;5068855;28;20218;-74
2021/11/21 01:10:58;;;;;;;17.67;8.57;;;;;;;6.25;95.71;99352.25;5062304;28;20214;-74
2021/11/21 01:13:28;;;;;;;16.65;7.53;;;;;;;6.30;94.71;99352.03;5062128;28;20272;-74
2021/11/21 01:15:54;;;;;;;15.07;8.98;;;;;;;5.91;96.20;99347.47;5069070;28;20288;-75
2021/11/21 01:18:22;;;;;;;15.88;9.27;;;;;;;5.80;96.98;99342.59;5061983;28;20288;-75
2021/11/21 01:20:49;;;;;;;17.30;10.63;;;;;;;5.80;97.75;99333.72;5067680;28;20618;-75
2021/11/21 01:23:18;;;;;;;18.58;10.90;;;;;;;5.85;98.71;99337.06;5063801;28;20627;-74
2021/11/21 01:25:46;;;;;;;19.75;10.30;;;;;;;5.74;100.00;99333.97;5060366;28;20602;-74
2021/11/21 01:28:14;;;;;;;17.42;9.98;;;;;;;6.09;98.26;99332.50;5063978;28;20217;-74
2021/11/21 01:30:44;;;;;;;17.08;10.05;;;;;;;6.13;98.34;99330.53;5068000;28;20232;-74
2021/11/21 01:33:12;;;;;;;23.10;11.00;;;;;;;6.07;97.64;99325.47;5063771;28;20274;-74
2021/11/21 01:35:39;;;;;;;21.27;11.77;;;;;;;5.94;97.39;99317.97;5062273;28;20621;-74
2021/11/21 01:38:06;;;;;;;19.38;11.68;;;;;;;5.84;99.19;99313.97;5063082;28;20273;-74
2021/11/21 01:40:33;;;;;;;29.02;15.07;;;;;;;5.96;100.00;99317.91;5065821;28;20280;-75
2021/11/21 01:43:01;;;;;;;20.08;12.35;;;;;;;6.18;98.37;99320.53;5065449;28;20220;-74
2021/11/21 01:45:27;;;;;;;18.95;11.45;;;;;;;6.02;98.00;99318.53;5062658;28;20709;-73
2021/11/21 01:47:56;;;;;;;19.70;10.52;;;;;;;6.06;99.00;99313.94;5061927;28;20225;-74
2021/11/21 01:50:25;;;;;;;22.45;12.07;;;;;;;6.24;98.48;99307.75;5061746;28;20376;-73
2021/11/21 01:52:52;;;;;;;18.40;10.57;;;;;;;6.20;97.97;99302.63;5067693;28;20190;-74
2021/11/21 01:55:19;;;;;;;19.33;11.07;;;;;;;5.78;100.00;99292.84;5061981;28;20656;-74
2021/11/21 01:57:46;;;;;;;18.17;10.98;;;;;;;5.90;100.00;99292.31;5062381;28;20600;-73
2021/11/21 02:00:14;;;;;;;21.27;13.00;;;;;;;5.85;100.00;99286.28;5064522;28;20732;-74
2021/11/21 02:02:42;;;;;;;22.73;12.90;;;;;;;5.91;99.84;99286.03;5066791;28;20671;-74
2021/11/21 02:05:12;;;;;;;23.05;12.27;;;;;;;6.09;99.09;99287.06;5064135;28;20582;-73
2021/11/21 02:07:41;;;;;;;16.40;10.27;;;;;;;6.14;97.49;99274.34;5064250;28;20229;-73
2021/11/21 02:10:10;;;;;;;23.17;12.60;;;;;;;5.84;96.95;99272.06;5061864;28;20185;-73
2021/11/21 02:12:37;;;;;;;21.00;11.75;;;;;;;5.82;98.30;99263.25;5061325;28;20328;-73
2021/11/21 02:15:09;;;;;;;19.10;11.27;;;;;;;6.01;96.50;99263.31;5066490;28;20794;-73
2021/11/21 02:17:36;;;;;;;21.00;12.25;;;;;;;6.14;95.08;99262.78;5061695;28;20213;-73
2021/11/21 02:20:04;;;;;;;19.45;11.23;;;;;;;6.13;94.80;99258.34;5061200;28;20189;-73
2021/11/21 02:22:33;;;;;;;13.38;8.52;;;;;;;6.05;94.95;99258.72;5061074;28;20197;-73
2021/11/21 02:25:00;;;;;;;18.70;10.52;;;;;;;5.89;96.78;99247.81;5060639;28;20210;-74
2021/11/21 02:27:31;;;;;;;18.65;9.60;;;;;;;6.00;97.39;99245.56;5060816;28;20229;-74
2021/11/21 02:29:59;;;;;;;14.20;7.70;;;;;;;5.91;96.22;99247.75;5053846;28;20683;-72
2021/11/21 02:32:25;;;;;;;13.55;7.10;;;;;;;5.83;97.80;99243.63;5058760;28;20221;-73
2021/11/21 02:34:53;;;;;;;12.65;8.00;;;;;;;5.69;99.02;99234.47;5062303;28;20252;-73
2021/11/21 02:37:20;;;;;;;17.10;8.15;;;;;;;5.80;99.44;99234.88;5064936;28;20600;-74
2021/11/21 02:39:48;;;;;;;16.27;8.60;;;;;;;5.67;100.00;99231.84;5062864;28;20217;-73
2021/11/21 02:42:25;;;;;;;15.05;8.75;;;;;;;5.73;100.00;99230.72;5059904;28;20281;-75
2021/11/21 02:44:52;;;;;;;14.68;7.85;;;;;;;5.62;100.00;99232.06;5062627;28;20261;-73
2021/11/21 02:47:19;;;;;;;17.33;9.13;;;;;;;5.76;100.00;99227.91;5060447;28;20648;-74
2021/11/21 02:49:45;;;;;;;16.00;8.65;;;;;;;5.60;100.00;99225.91;5062007;28;20269;-74
2021/11/21 02:52:12;;;;;;;16.42;8.55;;;;;;;5.60;100.00;99230.38;5064658;28;20232;-74
2021/11/21 02:54:51;;;;;;;15.68;8.63;;;;;;;5.67;100.00;99217.63;5059465;28;20289;-74
2021/11/21 02:57:17;;;;;;;12.93;8.05;;;;;;;5.47;100.00;99210.50;5059334;28;20623;-73
2021/11/21 02:59:44;;;;;;;12.73;6.75;;;;;;;5.46;100.00;99228.31;5065319;28;20190;-74
2021/11/21 03:02:11;;;;;;;13.98;6.88;;;;;;;5.51;100.00;99223.63;5063023;28;20220;-74
2021/11/21 03:04:38;;;;;;;13.60;7.80;;;;;;;5.70;100.00;99218.38;5058757;28;20230;-74
2021/11/21 03:07:04;;;;;;;16.88;7.72;;;;;;;5.81;100.00;99213.44;5072366;28;20213;-72
2021/11/21 03:09:31;;;;;;;13.23;7.07;;;;;;;5.75;100.00;99212.84;5064349;28;20312;-73
2021/11/21 03:12:00;;;;;;;13.05;7.30;;;;;;;5.72;100.00;99218.28;5062564;28;20224;-75
2021/11/21 03:14:27;;;;;;;13.98;8.57;;;;;;;5.82;100.00;99209.81;5060754;28;20230;-73
2021/11/21 03:16:54;;;;;;;11.25;6.63;;;;;;;5.62;100.00;99207.16;5068204;28;20296;-75
2021/11/21 03:19:20;;;;;;;13.43;6.55;;;;;;;5.62;100.00;99209.84;5060716;28;20221;-74
2021/11/21 03:21:47;;;;;;;13.80;7.50;;;;;;;5.63;100.00;99209.78;5063371;28;20660;-74
2021/11/21 03:24:14;;;;;;;14.73;8.60;;;;;;;5.62;100.00;99208.03;5058193;28;20233;-73
2021/11/21 03:26:40;;;;;;;13.13;7.63;;;;;;;5.56;100.00;99202.97;5061496;28;20635;-72
2021/11/21 03:29:08;;;;;;;15.05;8.80;;;;;;;5.67;100.00;99205.13;5066658;28;20229;-76
2021/11/21 03:31:35;;;;;;;15.30;7.07;;;;;;;5.67;100.00;99197.13;5065670;28;20288;-74
2021/11/21 03:34:02;;;;;;;16.83;8.25;;;;;;;5.56;100.00;99194.97;5060378;28;20278;-75
2021/11/21 03:36:30;;;;;;;12.15;7.05;;;;;;;5.56;100.00;99186.06;5062384;28;20260;-74
2021/11/21 03:38:57;;;;;;;11.07;6.93;;;;;;;5.46;100.00;99185.59;5071489;28;20648;-74
2021/11/21 03:41:24;;;;;;;10.85;6.03;;;;;;;5.43;100.00;99191.09;5064577;28;20218;-74
2021/11/21 03:43:51;;;;;;;11.18;6.80;;;;;;;5.34;100.00;99194.16;5064016;28;20230;-74
2021/11/21 03:46:19;;;;;;;10.38;6.32;;;;;;;5.08;100.00;99195.25;5063946;28;20277;-74
2021/11/21 03:48:46;;;;;;;13.48;6.88;;;;;;;5.30;100.00;99187.22;5064806;28;20264;-74
2021/11/21 03:51:13;;;;;;;12.52;6.40;;;;;;;5.39;100.00;99192.16;5064094;28;20241;-74
2021/11/21 03:53:39;;;;;;;10.70;5.88;;;;;;;5.41;100.00;99184.94;5068670;28;20218;-74
2021/11/21 03:56:06;;;;;;;10.65;5.55;;;;;;;5.37;100.00;99186.88;5063157;28;20248;-74
2021/11/21 03:58:33;;;;;;;11.75;6.35;;;;;;;5.41;100.00;99184.94;5065565;28;20695;-74
2021/11/21 04:01:00;;;;;;;11.95;6.22;;;;;;;5.47;100.00;99190.00;5075558;28;20185;-74
2021/11/21 04:03:28;;;;;;;9.48;5.43;;;;;;;5.41;100.00;99184.94;5065374;28;20611;-75
2021/11/21 04:05:55;;;;;;;8.77;5.25;;;;;;;5.50;100.00;99184.53;5061278;28;20255;-75
2021/11/21 04:08:21;;;;;;;9.50;5.00;;;;;;;5.45;100.00;99183.88;5064046;28;20268;-74
2021/11/21 04:10:48;;;;;;;8.02;5.20;;;;;;;5.56;100.00;99167.34;5063552;28;20281;-73
2021/11/21 04:13:15;;;;;;;11.93;6.25;;;;;;;5.52;100.00;99169.31;5065931;28;20283;-72
2021/11/21 04:15:42;;;;;;;9.00;5.95;;;;;;;5.42;100.00;99167.97;5067459;28;20588;-74
2021/11/21 04:18:09;;;;;;;9.32;5.35;;;;;;;5.73;100.00;99166.63;5066980;28;20233;-75
2021/11/21 04:20:38;;;;;;;9.10;5.80;;;;;;;5.83;100.00;99157.22;5063125;28;20190;-74
2021/11/21 04:23:05;;;;;;;7.03;5.00;;;;;;;5.93;98.52;99155.88;5058144;28;20232;-72
2021/11/21 04:25:31;;;;;;;7.57;4.85;;;;;;;5.89;98.37;99151.63;5065996;28;20229;-74
2021/11/21 04:27:58;;;;;;;10.70;5.97;;;;;;;5.81;99.92;99143.06;5066607;28;20232;-74
2021/11/21 04:30:25;;;;;;;7.03;5.45;;;;;;;5.83;100.00;99146.53;5059069;28;20229;-74
2021/11/21 04:32:52;;;;;;;8.82;6.03;;;;;;;5.79;100.00;99140.50;5067200;28;20367;-74
2021/11/21 04:35:20;;;;;;;9.15;5.43;;;;;;;5.81;100.00;99137.72;5064941;28;20280;-74
2021/11/21 04:37:49;;;;;;;8.35;4.65;;;;;;;5.67;100.00;99135.69;5061585;28;20687;-74
2021/11/21 04:40:17;;;;;;;8.93;5.13;;;;;;;5.67;100.00;99143.72;5065427;28;20232;-73
2021/11/21 04:42:44;;;;;;;10.07;5.97;;;;;;;5.50;100.00;99148.97;5062831;28;20234;-74
2021/11/21 04:45:11;;;;;;;11.13;5.80;;;;;;;5.62;100.00;99143.91;5064037;28;20221;-74
2021/11/21 04:47:39;;;;;;;11.63;5.55;;;;;;;5.76;100.00;99135.28;5062050;28;20269;-74
2021/11/21 04:50:07;;;;;;;10.18;4.72;;;;;;;5.81;100.00;99127.94;5063979;28;20202;-74
2021/11/21 04:52:35;;;;;;;8.88;5.05;;;;;;;5.75;100.00;99132.69;5066199;28;20632;-73
2021/11/21 04:55:05;;;;;;;8.65;4.78;;;;;;;5.72;100.00;99132.81;5062001;28;20233;-74
2021/11/21 04:57:32;;;;;;;9.93;5.80;;;;;;;5.79;100.00;99126.28;5063036;28;20713;-74
2021/11/21 04:59:59;;;;;;;7.75;4.80;;;;;;;5.79;100.00;99134.28;5066291;28;20189;-73
2021/11/21 05:02:25;;;;;;;10.50;5.80;;;;;;;5.81;100.00;99127.94;5058452;28;20647;-74
2021/11/21 05:04:52;;;;;;;8.05;5.47;;;;;;;5.69;100.00;99127.63;5066302;28;20217;-74
2021/11/21 05:07:19;;;;;;;8.75;5.00;;;;;;;5.82;100.00;99129.66;5061533;28;21573;-74
2021/11/21 05:09:45;;;;;;;10.85;5.50;;;;;;;6.03;100.00;99127.81;5066814;28;20264;-74
2021/11/21 05:12:13;;;;;;;9.55;5.90;;;;;;;6.16;100.00;99125.44;5063108;28;20364;-74
2021/11/21 05:14:40;;;;;;;7.20;5.00;;;;;;;6.14;100.00;99121.09;5068487;28;20685;-74
2021/11/21 05:17:07;;;;;;;7.18;5.10;;;;;;;6.15;100.00;99126.38;5064172;28;20212;-74
2021/11/21 05:19:34;;;;;;;7.22;4.78;;;;;;;6.33;100.00;99121.97;5062078;28;20202;-74
2021/11/21 05:22:00;;;;;;;7.38;5.10;;;;;;;6.55;99.07;99123.59;5067141;28;20224;-74
2021/11/21 05:24:27;;;;;;;6.65;4.65;;;;;;;6.66;97.79;99118.56;5062170;28;20190;-73
2021/11/21 05:26:54;;;;;;;8.70;4.85;;;;;;;6.67;95.66;99113.16;5070181;28;20240;-74
2021/11/21 05:29:22;;;;;;;6.82;5.13;;;;;;;6.54;97.12;99116.50;5058425;28;20225;-73
2021/11/21 05:31:49;;;;;;;9.02;5.60;;;;;;;6.82;95.39;99110.63;5062598;28;20190;-74
2021/11/21 05:34:16;;;;;;;8.60;4.95;;;;;;;6.72;95.04;99112.91;5065455;28;20189;-75
2021/11/21 05:36:44;;;;;;;8.20;5.32;;;;;;;6.60;96.47;99108.16;5058878;28;20230;-74
2021/11/21 05:39:11;;;;;;;7.78;5.60;;;;;;;6.81;95.63;99109.78;5066739;28;20278;-74
2021/11/21 05:41:37;;;;;;;9.10;5.93;;;;;;;6.72;95.93;99110.25;5065978;28;20224;-75
2021/11/21 05:44:04;;;;;;;9.20;5.45;;;;;;;6.82;95.24;99111.50;5063034;28;20220;-74
2021/11/21 05:46:32;;;;;;;10.88;6.47;;;;;;;6.94;93.87;99104.66;5059262;28;20244;-74
2021/11/21 05:48:59;;;;;;;9.57;5.70;;;;;;;6.94;93.72;99111.81;5063656;28;20533;-73
2021/11/21 05:51:26;;;;;;;7.70;4.95;;;;;;;6.76;94.75;99108.25;5065407;28;20617;-74
2021/11/21 05:53:53;;;;;;;8.02;5.50;;;;;;;6.46;97.28;99101.69;5059094;28;20252;-74
2021/11/21 05:56:20;;;;;;;7.07;5.00;;;;;;;6.30;98.70;99091.81;5061853;28;20671;-74
2021/11/21 05:58:47;;;;;;;7.90;5.03;;;;;;;6.29;99.47;99104.34;5055290;28;20232;-71
2021/11/21 06:01:15;;;;;;;6.90;4.75;;;;;;;6.15;99.50;99094.31;5065298;28;20190;-73
2021/11/21 06:03:43;;;;;;;7.47;4.32;;;;;;;6.29;98.48;99098.09;5054004;28;20529;-72
2021/11/21 06:06:09;;;;;;;6.28;4.47;;;;;;;6.35;97.48;99103.16;5056048;28;20254;-73
2021/11/21 06:08:36;;;;;;;4.97;3.92;;;;;;;6.13;97.24;99106.00;5067034;28;20252;-74
2021/11/21 06:11:03;;;;;;;6.45;4.10;;;;;;;6.28;97.72;99107.06;5061759;28;20280;-74
2021/11/21 06:13:29;;;;;;;4.28;3.70;;;;;;;6.26;97.00;99094.66;5060813;28;20235;-74
2021/11/21 06:15:56;;;;;;;7.30;4.55;;;;;;;6.12;97.23;99085.56;5054585;28;20251;-74
2021/11/21 06:18:23;;;;;;;5.38;3.75;;;;;;;5.96;98.61;99096.13;5060124;28;20258;-74
2021/11/21 06:20:51;;;;;;;4.43;3.45;;;;;;;6.02;100.00;99091.34;5065003;28;20269;-74
2021/11/21 06:23:18;;;;;;;5.63;3.92;;;;;;;6.02;99.36;99098.50;5065071;28;20190;-72
2021/11/21 06:25:45;;;;;;;6.90;3.78;;;;;;;6.15;100.00;99096.97;5063559;28;20224;-74
2021/11/21 06:28:12;;;;;;;6.50;4.35;;;;;;;6.38;97.48;99101.22;5058055;28;20217;-74
2021/11/21 06:30:40;;;;;;;4.95;3.47;;;;;;;6.30;96.47;99092.69;5065140;28;20277;-74
2021/11/21 06:33:07;;;;;;;4.70;3.45;;;;;;;6.29;97.08;99090.06;5064805;28;20552;-75
2021/11/21 06:35:36;;;;;;;4.60;3.83;;;;;;;6.31;95.93;99090.88;5057267;28;20229;-74
2021/11/21 06:38:05;;;;;;;4.85;3.50;;;;;;;6.08;97.36;99095.53;5069905;28;20646;-73
2021/11/21 06:40:31;;;;;;;5.22;3.88;;;;;;;6.16;97.62;99088.00;5064418;28;20605;-73
2021/11/21 06:42:58;;;;;;;7.00;3.97;;;;;;;6.08;97.44;99091.97;5064438;28;20217;-73
2021/11/21 06:45:25;;;;;;;7.57;4.65;;;;;;;5.83;98.70;99085.09;5063676;28;20593;-73
2021/11/21 06:47:51;;;;;;;5.47;4.05;;;;;;;5.80;100.00;99090.59;5063553;28;20237;-73
2021/11/21 06:50:18;;;;;;;6.95;4.40;;;;;;;5.99;100.00;99088.84;5066464;28;20230;-73
2021/11/21 06:52:46;;;;;;;5.18;4.13;;;;;;;6.23;99.55;99089.44;5062877;28;20229;-73
2021/11/21 06:55:17;;;;;;;5.68;3.80;;;;;;;6.29;97.82;99085.63;5064801;28;20189;-75
2021/11/21 06:57:44;;;;;;;6.28;5.00;;;;;;;6.28;96.98;99081.19;5061523;28;20207;-73
2021/11/21 07:00:13;;;;;;;5.72;4.03;;;;;;;6.20;96.92;99078.91;5061209;28;20617;-73
2021/11/21 07:02:40;;;;;;;5.35;3.85;;;;;;;6.50;94.50;99088.19;5062415;28;20190;-73
2021/11/21 07:05:08;;;;;;;5.90;3.80;;;;;;;6.56;94.16;99096.75;5064263;28;20192;-74
2021/11/21 07:07:35;;;;;;;6.97;4.30;;;;;;;6.42;93.99;99089.44;5056145;28;20309;-74
2021/11/21 07:10:02;;;;;;;5.15;3.83;;;;;;;6.32;96.18;99090.81;5058796;28;20676;-74
2021/11/21 07:12:30;;;;;;;5.07;3.88;;;;;;;6.29;95.56;99088.28;5060921;28;20206;-73
2021/11/21 07:14:57;;;;;;;4.47;3.60;;;;;;;6.24;96.61;99093.88;5056287;28;20637;-73
2021/11/21 07:17:23;;;;;;;4.82;3.60;;;;;;;6.41;96.32;99089.50;5059096;28;20245;-73
2021/11/21 07:19:50;;;;;;;6.05;4.20;;;;;;;6.41;95.67;99093.03;5058627;28;20606;-72
2021/11/21 07:22:17;;;;;;;4.32;2.90;;;;;;;6.53;95.06;99093.38;5069501;28;20699;-74
2021/11/21 07:24:44;;;;;;;4.63;3.78;;;;;;;6.29;95.73;99085.63;5066865;28;20217;-74
2021/11/21 07:27:10;;;;;;;5.20;3.35;;;;;;;6.40;94.73;99093.97;5067822;28;20186;-73
2021/11/21 07:29:38;;;;;;;5.05;3.45;;;;;;;6.15;95.72;99091.63;5060083;28;20229;-74
2021/11/21 07:32:06;;;;;;;17.25;9.68;;;;;;;6.05;97.66;99090.34;5054975;28;20277;-74
2021/11/21 07:34:33;;;;;;;7.00;4.20;;;;;;;6.28;96.98;99094.56;5057408;28;20193;-75
2021/11/21 07:37:00;;;;;;;6.55;4.40;;;;;;;6.00;98.29;99095.03;5067630;28;20232;-74
2021/11/21 07:39:27;;;;;;;4.85;4.05;;;;;;;6.04;98.16;99089.47;5062484;28;20229;-73
2021/11/21 07:41:53;;;;;;;6.20;3.58;;;;;;;6.10;96.97;99087.44;5063589;28;20222;-74
2021/11/21 07:44:20;;;;;;;4.85;3.63;;;;;;;6.21;97.50;99082.44;5064493;28;20240;-74
2021/11/21 07:46:48;;;;;;;6.20;3.35;;;;;;;6.16;98.68;99084.47;5060578;28;20193;-74
2021/11/21 07:49:15;;;;;;;4.30;3.55;;;;;;;6.29;97.75;99090.06;5062026;28;20229;-73
2021/11/21 07:51:42;;;;;;;5.57;4.50;;;;;;;6.13;98.09;99084.59;5065454;28;20244;-75
2021/11/21 07:54:09;;;;;;;5.55;3.40;;;;;;;6.27;97.97;99079.47;5059140;28;20232;-74
2021/11/21 07:56:36;;;;;;;6.68;4.63;;;;;;;6.37;96.53;99085.22;5063529;28;20213;-74
2021/11/21 07:59:03;;;;;;;5.50;3.88;;;;;;;6.38;95.47;99085.16;5057318;28;20194;-73
2021/11/21 08:01:30;;;;;;;6.13;4.38;;;;;;;6.23;96.51;99083.25;5068425;28;20229;-73
2021/11/21 08:03:58;;;;;;;5.90;4.70;;;;;;;6.26;96.54;99077.72;5064484;28;20221;-74
2021/11/21 08:06:25;;;;;;;6.35;4.47;;;;;;;6.34;98.01;99078.22;5064396;28;20225;-75
2021/11/21 08:08:51;;;;;;;6.03;4.63;;;;;;;6.07;98.53;99074.22;5063055;28;20312;-73
2021/11/21 08:11:18;;;;;;;6.35;4.38;;;;;;;6.19;99.24;99078.97;5062194;28;20193;-73
2021/11/21 08:13:45;;;;;;;6.25;4.68;;;;;;;6.27;99.57;99076.81;5055714;28;20619;-74
2021/11/21 08:16:11;;;;;;;6.85;4.68;;;;;;;6.31;98.66;99083.75;5063168;28;20233;-73
2021/11/21 08:18:38;;;;;;;7.40;3.88;;;;;;;6.51;97.19;99084.53;5060673;28;20299;-73
2021/11/21 08:21:06;;;;;;;6.35;4.60;;;;;;;6.42;97.68;99084.09;5068664;28;20225;-73
2021/11/21 08:23:33;;;;;;;5.18;3.92;;;;;;;6.71;95.23;99081.75;5066346;28;20229;-73
2021/11/21 08:26:00;;;;;;;5.18;4.03;;;;;;;6.74;93.96;99080.72;5063896;28;20600;-74
2021/11/21 08:28:26;;;;;;;5.85;3.90;;;;;;;6.62;95.34;99079.53;5056954;28;20624;-73
2021/11/21 08:30:53;;;;;;;4.22;3.65;;;;;;;6.70;95.07;99085.38;5062866;28;20276;-74
2021/11/21 08:33:20;;;;;;;5.10;4.40;;;;;;;6.80;95.98;99086.63;5064538;28;20185;-73
2021/11/21 08:35:47;;;;;;;6.15;4.32;;;;;;;6.64;95.11;99088.34;5067199;28;20236;-74
2021/11/21 08:38:15;;;;;;;5.50;4.40;;;;;;;6.93;94.02;99096.72;5064196;28;20305;-73
2021/11/21 08:40:42;;;;;;;5.35;3.78;;;;;;;7.01;91.75;99089.13;5061853;28;20632;-73
2021/11/21 08:43:09;;;;;;;4.30;3.90;;;;;;;6.94;92.82;99090.41;5056591;28;20273;-74
2021/11/21 08:45:35;;;;;;;4.82;4.03;;;;;;;7.00;92.30;99079.38;5058755;28;20190;-73
2021/11/21 08:48:02;;;;;;;5.18;3.88;;;;;;;6.64;94.00;99081.19;5056618;28;20664;-74
2021/11/21 08:50:30;;;;;;;3.90;3.50;;;;;;;6.71;95.62;99078.19;5070041;28;20209;-73
2021/11/21 08:52:57;;;;;;;5.32;3.42;;;;;;;6.94;93.42;99077.88;5063126;28;20226;-74
2021/11/21 08:55:25;;;;;;;4.78;3.72;;;;;;;7.09;92.68;99071.75;5072932;28;20237;-74
2021/11/21 08:57:52;;;;;;;4.63;3.35;;;;;;;7.04;90.93;99071.13;5054938;28;20202;-73
2021/11/21 09:00:19;;;;;;;4.05;3.28;;;;;;;7.00;92.96;99076.72;5054141;28;20587;-73
2021/11/21 09:02:46;;;;;;;4.03;3.63;;;;;;;7.17;90.84;99068.69;5049685;28;20202;-74
2021/11/21 09:05:13;;;;;;;4.80;3.53;;;;;;;7.13;91.08;99067.09;5054814;28;20232;-74
2021/11/21 09:07:42;;;;;;;4.30;3.35;;;;;;;7.08;91.05;99066.50;5054795;28;20261;-74
2021/11/21 09:10:11;;;;;;;3.83;3.10;;;;;;;7.29;90.86;99062.66;5054664;28;20222;-73
2021/11/21 09:12:41;;;;;;;4.35;3.47;;;;;;;7.53;89.42;99062.31;5066872;28;20269;-73
2021/11/21 09:15:10;;;;;;;5.32;3.70;;;;;;;7.03;90.04;99066.72;5055470;28;20352;-73
2021/11/21 09:17:37;;;;;;;4.13;3.42;;;;;;;6.90;91.13;99062.94;5067606;28;20288;-73
2021/11/21 09:20:04;;;;;;;3.97;3.58;;;;;;;7.13;91.42;99059.06;5064160;28;20221;-72
2021/11/21 09:22:31;;;;;;;3.50;3.05;;;;;;;7.19;88.89;99060.53;5055521;28;20233;-73
2021/11/21 09:24:58;;;;;;;4.35;3.60;;;;;;;7.12;89.38;99060.00;5069972;28;20675;-72
2021/11/21 09:27:25;;;;;;;4.15;3.75;;;;;;;7.20;89.34;99065.81;5067941;28;20597;-75
2021/11/21 09:29:53;;;;;;;5.70;3.60;;;;;;;7.22;90.82;99065.75;5062750;28;20225;-73
2021/11/21 09:32:19;;;;;;;5.07;3.80;;;;;;;7.36;89.31;99060.53;5059835;28;20182;-74
2021/11/21 09:34:47;;;;;;;4.80;3.67;;;;;;;7.43;88.92;99061.91;5068922;28;20210;-73
2021/11/21 09:37:15;;;;;;;4.03;3.42;;;;;;;7.42;89.02;99068.25;5054860;28;20304;-73
2021/11/21 09:39:42;;;;;;;3.90;3.38;;;;;;;7.67;86.83;99066.91;5060973;28;20221;-74
2021/11/21 09:42:09;;;;;;;3.25;2.78;;;;;;;7.66;86.15;99071.38;5048454;28;20238;-74
2021/11/21 09:44:35;;;;;;;4.38;3.35;;;;;;;7.55;86.45;99075.59;5065400;28;20314;-74
2021/11/21 09:47:04;;;;;;;3.22;2.92;;;;;;;7.15;88.78;99080.41;5064506;28;20224;-74
2021/11/21 09:49:31;;;;;;;3.80;3.08;;;;;;;6.89;90.26;99088.81;5061542;28;20221;-75
2021/11/21 09:51:57;;;;;;;4.00;3.42;;;;;;;6.94;91.36;99077.88;5064414;28;20225;-75
2021/11/21 09:54:29;;;;;;;3.85;3.30;;;;;;;7.06;91.17;99082.63;5063551;28;20696;-75
2021/11/21 09:56:57;;;;;;;3.83;3.45;;;;;;;7.18;90.90;99083.78;5061850;28;20194;-74
2021/11/21 09:59:53;;;;;;;4.35;3.20;;;;;;;7.37;89.40;99075.66;5055665;28;20668;-74
2021/11/21 10:02:23;;;;;;;2.53;2.33;;;;;;;7.16;89.48;99076.78;5053452;28;20268;-75
2021/11/21 10:04:52;;;;;;;3.83;3.22;;;;;;;7.05;91.35;99078.19;5063464;28;20221;-75
2021/11/21 10:07:23;;;;;;;3.72;2.80;;;;;;;7.29;90.61;99076.06;5058526;28;20190;-75
2021/11/21 10:09:51;;;;;;;4.85;3.70;;;;;;;7.14;91.74;99074.19;5069346;28;20236;-74
2021/11/21 10:12:19;;;;;;;4.82;2.90;;;;;;;7.37;89.43;99062.28;5059555;28;20189;-74
2021/11/21 10:15:03;;;;;;;4.47;4.07;;;;;;;7.57;88.83;99063.84;5054781;28;20240;-74
2021/11/21 10:17:32;;;;;;;6.03;4.80;;;;;;;7.75;88.86;99066.47;5066834;28;20215;-74
2021/11/21 10:20:09;;;;;;;6.40;5.63;;;;;;;7.80;89.18;99062.63;5053981;28;20702;-75
2021/11/21 10:22:47;;;;;;;8.73;6.65;;;;;;;7.82;88.73;99049.09;5065083;28;20220;-75
2021/11/21 10:25:14;;;;;;;8.80;6.78;;;;;;;7.97;88.33;99048.25;5061342;28;20209;-75
2021/11/21 10:27:41;;;;;;;6.43;5.38;;;;;;;8.03;86.84;99049.75;5068110;28;20217;-74
2021/11/21 10:30:09;;;;;;;8.50;7.00;;;;;;;8.06;86.00;99047.72;5065117;28;20221;-74
2021/11/21 10:32:37;;;;;;;9.00;6.13;;;;;;;7.93;86.16;99044.00;5057119;28;20234;-74
2021/11/21 10:35:07;;;;;;;7.80;5.55;;;;;;;7.93;88.48;99044.00;5059730;28;20199;-74
2021/11/21 10:37:36;;;;;;;7.47;5.85;;;;;;;7.97;86.46;99037.53;5060330;28;20300;-73
2021/11/21 10:40:07;;;;;;;7.65;5.18;;;;;;;7.97;87.54;99040.22;5061030;28;20653;-74
2021/11/21 10:42:34;;;;;;;7.32;6.28;;;;;;;7.87;86.99;99031.84;5065275;28;20233;-74
2021/11/21 10:45:01;;;;;;;5.75;3.97;;;;;;;7.89;85.99;99032.63;5065610;28;20226;-74
2021/11/21 10:47:43;;;;;;;6.20;5.00;;;;;;;7.68;87.25;99029.28;5059023;28;20572;-74
2021/11/21 10:50:12;;;;;;;5.40;4.30;;;;;;;7.29;87.97;99022.50;5065536;28;20226;-75
2021/11/21 10:52:46;;;;;;;5.88;3.95;;;;;;;7.41;88.50;99018.28;5067224;28;20197;-76
2021/11/21 10:55:16;;;;;;;4.47;3.47;;;;;;;7.24;89.80;99015.66;5054446;28;20594;-75
2021/11/21 10:57:42;;;;;;;3.97;3.35;;;;;;;7.37;89.87;99016.75;5057617;28;20291;-74
2021/11/21 11:00:16;;;;;;;4.50;3.60;;;;;;;7.57;88.53;99012.94;5064163;28;20290;-74
2021/11/21 11:02:45;;;;;;;4.68;3.85;;;;;;;7.68;88.10;99004.31;5054625;28;20610;-75
2021/11/21 11:05:13;;;;;;;4.78;3.90;;;;;;;7.65;89.84;99009.84;5068332;28;20220;-74
2021/11/21 11:07:42;;;;;;;4.00;3.60;;;;;;;7.21;91.49;99000.63;5045738;28;20249;-75
2021/11/21 11:10:12;;;;;;;3.60;3.30;;;;;;;7.17;92.57;98999.06;5058121;28;20566;-74
2021/11/21 11:12:39;;;;;;;5.28;3.70;;;;;;;7.46;92.67;98996.59;5052613;28;20218;-75
2021/11/21 11:15:07;;;;;;;4.60;4.05;;;;;;;7.60;91.43;98985.13;5052139;28;20190;-75
2021/11/21 11:17:35;;;;;;;3.05;2.75;;;;;;;7.45;90.01;98989.53;5059680;28;20734;-74
2021/11/21 11:20:06;;;;;;;3.42;2.80;;;;;;;7.39;90.42;98987.19;5064961;28;20225;-75
2021/11/21 11:22:34;;;;;;;4.15;3.60;;;;;;;7.43;89.71;98986.06;5063425;28;20187;-73
2021/11/21 11:25:02;;;;;;;5.07;3.22;;;;;;;7.64;90.27;98976.84;5057978;28;20570;-75
2021/11/21 11:27:37;;;;;;;6.32;4.50;;;;;;;7.79;89.31;98982.28;5062529;28;20282;-75
2021/11/21 11:30:05;;;;;;;4.20;3.30;;;;;;;7.87;87.67;98985.41;5056570;28;20241;-75
2021/11/21 11:32:36;;;;;;;4.28;3.58;;;;;;;7.63;87.56;98977.78;5067093;28;20183;-75
2021/11/21 11:35:05;;;;;;;4.35;3.03;;;;;;;7.85;87.60;98982.81;5053873;28;20198;-74
2021/11/21 11:37:41;;;;;;;5.40;3.85;;;;;;;7.94;87.35;98976.06;5065540;28;20218;-74
2021/11/21 11:40:41;;;;;;;3.85;3.28;;;;;;;7.78;87.08;98973.38;5060499;28;20191;-74